createdAt,value
2022-12-27T00:01:49.674Z,10.97
2022-12-27T00:04:17.923Z,8.27
2022-12-27T00:06:47.257Z,10.13
2022-12-27T00:09:15.359Z,7.53
2022-12-27T00:11:43.410Z,7.30
2022-12-27T00:14:11.905Z,7.97
2022-12-27T00:16:40.622Z,10.73
2022-12-27T00:19:08.744Z,9.87
2022-12-27T00:21:37.032Z,9.20
2022-12-27T00:24:07.007Z,11.00
2022-12-27T00:26:36.251Z,15.60
2022-12-27T00:29:04.300Z,12.87
2022-12-27T00:31:33.478Z,12.00
2022-12-27T00:34:03.943Z,13.83
2022-12-27T00:36:33.630Z,11.93
2022-12-27T00:39:02.388Z,9.07
2022-12-27T00:41:31.785Z,9.53
2022-12-27T00:43:59.868Z,11.60
2022-12-27T00:46:27.905Z,8.47
2022-12-27T00:48:57.537Z,13.97
2022-12-27T00:51:26.700Z,12.03
2022-12-27T00:53:55.762Z,12.97
2022-12-27T00:56:26.221Z,12.53
2022-12-27T00:59:00.133Z,11.27
2022-12-27T01:01:30.599Z,11.20
2022-12-27T01:03:59.380Z,11.57
2022-12-27T01:06:29.754Z,10.70
2022-12-27T01:08:58.378Z,8.70
2022-12-27T01:11:28.401Z,9.83
2022-12-27T01:13:58.569Z,13.90
2022-12-27T01:16:27.394Z,11.97
2022-12-27T01:18:56.034Z,12.50
2022-12-27T01:21:25.799Z,10.87
2022-12-27T01:23:53.873Z,12.13
2022-12-27T01:26:24.135Z,10.70
2022-12-27T01:28:53.225Z,9.40
2022-12-27T01:31:24.737Z,10.50
2022-12-27T01:33:58.323Z,10.73
2022-12-27T01:36:27.996Z,9.53
2022-12-27T01:38:56.152Z,10.53
2022-12-27T01:41:43.530Z,11.03
2022-12-27T01:44:49.563Z,10.20
2022-12-27T01:47:25.386Z,8.57
2022-12-27T01:50:00.804Z,8.13
2022-12-27T01:52:35.258Z,10.37
2022-12-27T01:55:12.240Z,6.83
2022-12-27T01:57:40.495Z,8.90
2022-12-27T02:00:12.721Z,13.80
2022-12-27T02:02:42.502Z,10.17
2022-12-27T02:05:12.750Z,8.87
2022-12-27T02:07:48.658Z,8.50
2022-12-27T02:10:17.289Z,8.10
2022-12-27T02:12:48.023Z,9.70
2022-12-27T02:15:16.336Z,9.67
2022-12-27T02:17:45.649Z,6.20
2022-12-27T02:20:16.974Z,9.50
2022-12-27T02:23:42.224Z,8.80
2022-12-27T02:26:40.090Z,6.97
2022-12-27T02:29:29.712Z,7.70
2022-12-27T02:32:04.831Z,9.70
2022-12-27T02:34:39.299Z,9.33
2022-12-27T02:37:11.408Z,9.10
2022-12-27T02:39:44.546Z,9.03
2022-12-27T02:42:31.570Z,6.87
2022-12-27T02:45:18.621Z,10.77
2022-12-27T02:48:06.238Z,15.03
2022-12-27T02:51:10.657Z,10.70
2022-12-27T02:53:49.161Z,9.50
2022-12-27T02:56:43.264Z,7.63
2022-12-27T02:59:25.321Z,11.10
2022-12-27T03:02:24.572Z,9.07
2022-12-27T03:05:11.134Z,13.87
2022-12-27T03:07:44.512Z,7.87
2022-12-27T03:10:42.326Z,12.40
2022-12-27T03:13:42.282Z,10.13
2022-12-27T03:16:17.707Z,8.80
2022-12-27T03:19:04.392Z,13.90
2022-12-27T03:21:52.490Z,7.80
2022-12-27T03:24:41.839Z,7.20
2022-12-27T03:27:18.001Z,10.87
2022-12-27T03:30:10.002Z,9.17
2022-12-27T03:33:01.575Z,6.00
2022-12-27T03:35:34.279Z,12.97
2022-12-27T03:38:03.999Z,9.77
2022-12-27T03:41:05.986Z,12.43
2022-12-27T03:43:35.689Z,9.63
2022-12-27T03:46:35.110Z,12.43
2022-12-27T03:49:12.305Z,8.23
2022-12-27T03:51:44.309Z,7.87
2022-12-27T03:54:17.770Z,8.50
2022-12-27T03:56:45.994Z,10.17
2022-12-27T03:59:14.007Z,9.37
2022-12-27T04:01:42.441Z,8.30
2022-12-27T04:04:10.537Z,10.70
2022-12-27T04:06:38.519Z,7.73
2022-12-27T04:09:25.581Z,8.27
2022-12-27T04:12:11.056Z,7.67
2022-12-27T04:14:58.573Z,9.90
2022-12-27T04:17:44.025Z,9.70
2022-12-27T04:20:30.014Z,11.43
2022-12-27T04:23:15.778Z,7.27
2022-12-27T04:26:03.426Z,5.37
2022-12-27T04:28:48.946Z,8.53
2022-12-27T04:31:37.352Z,12.43
2022-12-27T04:34:22.664Z,11.13
2022-12-27T04:36:53.572Z,7.10
2022-12-27T04:39:21.656Z,13.20
2022-12-27T04:42:08.716Z,7.80
2022-12-27T04:44:59.984Z,6.73
2022-12-27T04:47:45.316Z,6.90
2022-12-27T04:50:43.079Z,9.33
2022-12-27T04:53:30.561Z,9.70
2022-12-27T04:55:58.499Z,8.13
2022-12-27T04:58:28.637Z,6.33
2022-12-27T05:01:16.325Z,9.40
2022-12-27T05:03:45.780Z,7.27
2022-12-27T05:06:14.085Z,9.23
2022-12-27T05:09:00.527Z,10.20
2022-12-27T05:11:45.907Z,9.97
2022-12-27T05:14:16.921Z,8.33
2022-12-27T05:16:45.934Z,10.87
2022-12-27T05:19:15.138Z,7.87
2022-12-27T05:22:06.714Z,7.73
2022-12-27T05:24:51.940Z,7.63
2022-12-27T05:27:20.022Z,7.20
2022-12-27T05:29:49.438Z,10.60
2022-12-27T05:32:19.257Z,8.57
2022-12-27T05:34:47.202Z,6.13
2022-12-27T05:37:18.273Z,8.07
2022-12-27T05:39:46.201Z,8.27
2022-12-27T05:42:14.245Z,7.73
2022-12-27T05:44:42.207Z,7.00
2022-12-27T05:47:11.523Z,9.00
2022-12-27T05:49:39.506Z,6.17
2022-12-27T05:52:07.488Z,5.73
2022-12-27T05:54:35.502Z,9.33
2022-12-27T05:57:03.472Z,7.47
2022-12-27T05:59:34.386Z,8.57
2022-12-27T06:02:02.492Z,8.83
2022-12-27T06:04:31.970Z,10.40
2022-12-27T06:07:00.157Z,10.90
2022-12-27T06:09:28.182Z,7.93
2022-12-27T06:11:57.218Z,9.10
2022-12-27T06:14:25.210Z,11.07
2022-12-27T06:16:53.267Z,8.10
2022-12-27T06:19:21.337Z,10.80
2022-12-27T06:21:50.717Z,8.30
2022-12-27T06:24:18.737Z,7.27
2022-12-27T06:26:46.743Z,8.03
2022-12-27T06:29:14.781Z,6.30
2022-12-27T06:31:42.780Z,6.70
2022-12-27T06:34:12.087Z,9.17
2022-12-27T06:36:40.074Z,8.20
2022-12-27T06:39:09.450Z,8.40
2022-12-27T06:41:40.569Z,8.67
2022-12-27T06:44:08.808Z,8.93
2022-12-27T06:46:39.494Z,10.93
2022-12-27T06:49:07.445Z,7.40
2022-12-27T06:51:37.281Z,8.13
2022-12-27T06:54:06.431Z,11.03
2022-12-27T06:56:35.674Z,10.73
2022-12-27T06:59:03.708Z,10.77
2022-12-27T07:01:32.031Z,9.27
2022-12-27T07:04:01.320Z,9.57
2022-12-27T07:06:31.837Z,8.17
2022-12-27T07:09:02.431Z,13.20
2022-12-27T07:11:32.766Z,13.40
2022-12-27T07:14:02.170Z,13.37
2022-12-27T07:16:32.043Z,13.03
2022-12-27T07:19:00.963Z,8.93
2022-12-27T07:21:30.045Z,14.87
2022-12-27T07:23:58.983Z,16.37
2022-12-27T07:26:30.147Z,10.90
2022-12-27T07:28:59.872Z,19.00
2022-12-27T07:31:33.870Z,16.67
2022-12-27T07:34:03.264Z,11.30
2022-12-27T07:36:35.095Z,16.33
2022-12-27T07:39:03.043Z,14.40
2022-12-27T07:41:30.994Z,14.23
2022-12-27T07:43:59.014Z,15.27
2022-12-27T07:46:29.187Z,15.23
2022-12-27T07:49:00.258Z,15.67
2022-12-27T07:51:28.997Z,16.17
2022-12-27T07:53:57.245Z,13.73
2022-12-27T07:56:27.464Z,10.33
2022-12-27T07:58:57.251Z,13.57
2022-12-27T08:01:27.882Z,14.87
2022-12-27T08:03:57.435Z,18.00
2022-12-27T08:06:28.902Z,14.63
2022-12-27T08:08:58.702Z,12.90
2022-12-27T08:11:27.295Z,13.67
2022-12-27T08:13:55.464Z,11.10
2022-12-27T08:16:25.634Z,11.20
2022-12-27T08:18:54.161Z,10.63
2022-12-27T08:21:23.623Z,16.13
2022-12-27T08:23:51.675Z,11.37
2022-12-27T08:26:19.640Z,9.50
2022-12-27T08:28:47.760Z,13.37
2022-12-27T08:31:15.771Z,15.63
2022-12-27T08:33:43.834Z,14.80
2022-12-27T08:39:03.316Z,12.57
2022-12-27T08:41:31.330Z,13.37
2022-12-27T08:43:59.417Z,14.77
2022-12-27T08:46:27.385Z,13.00
2022-12-27T08:48:55.500Z,17.20
2022-12-27T08:51:34.300Z,15.23
2022-12-27T08:54:10.396Z,15.03
2022-12-27T08:56:38.730Z,12.73
2022-12-27T08:59:06.812Z,15.23
2022-12-27T09:01:35.042Z,17.13
2022-12-27T09:04:07.142Z,21.53
2022-12-27T09:06:37.661Z,22.07
2022-12-27T09:09:05.725Z,20.80
2022-12-27T09:11:36.019Z,16.10
2022-12-27T09:14:05.488Z,15.07
2022-12-27T09:16:35.492Z,12.87
2022-12-27T09:19:04.820Z,16.77
2022-12-27T09:21:34.871Z,17.90
2022-12-27T09:24:05.332Z,17.73
2022-12-27T09:26:34.858Z,17.63
2022-12-27T09:29:03.063Z,16.07
2022-12-27T09:31:31.389Z,17.27
2022-12-27T09:33:59.987Z,20.67
2022-12-27T09:36:29.623Z,13.17
2022-12-27T09:38:58.904Z,19.67
2022-12-27T09:42:34.174Z,20.43
2022-12-27T09:44:35.391Z,17.97
2022-12-27T09:47:09.627Z,15.20
2022-12-27T09:49:41.059Z,14.23
2022-12-27T09:52:15.156Z,14.27
2022-12-27T09:55:02.665Z,15.43
2022-12-27T09:57:38.396Z,15.67
2022-12-27T10:00:15.652Z,14.77
2022-12-27T10:02:45.061Z,15.43
2022-12-27T10:05:21.858Z,19.23
2022-12-27T10:08:10.227Z,20.00
2022-12-27T10:10:43.344Z,13.47
2022-12-27T10:13:26.415Z,16.60
2022-12-27T10:16:06.243Z,13.73
2022-12-27T10:18:44.948Z,12.23
2022-12-27T10:21:20.968Z,12.27
2022-12-27T10:23:55.293Z,13.77
2022-12-27T10:26:23.556Z,18.17
2022-12-27T10:28:57.531Z,13.33
2022-12-27T10:31:26.489Z,18.53
2022-12-27T10:33:58.474Z,14.60
2022-12-27T10:36:29.078Z,13.63
2022-12-27T10:38:58.011Z,20.37
2022-12-27T10:41:34.822Z,12.27
2022-12-27T10:44:10.372Z,13.07
2022-12-27T10:46:39.708Z,14.30
2022-12-27T10:49:20.921Z,16.53
2022-12-27T10:51:51.112Z,16.53
2022-12-27T10:54:24.529Z,14.23
2022-12-27T10:56:53.074Z,17.13
2022-12-27T10:59:24.318Z,18.63
2022-12-27T11:02:16.131Z,16.90
2022-12-27T11:04:58.966Z,15.30
2022-12-27T11:07:33.753Z,16.17
2022-12-27T11:10:18.224Z,14.33
2022-12-27T11:13:01.788Z,15.63
2022-12-27T11:15:34.124Z,11.60
2022-12-27T11:18:05.393Z,13.93
2022-12-27T11:20:38.587Z,15.33
2022-12-27T11:23:13.972Z,16.50
2022-12-27T11:25:56.345Z,15.07
2022-12-27T11:28:30.141Z,16.03
2022-12-27T11:31:02.253Z,12.50
2022-12-27T11:33:40.452Z,15.43
2022-12-27T11:36:11.676Z,12.20
2022-12-27T11:38:44.008Z,12.33
2022-12-27T11:41:20.859Z,16.47
2022-12-27T11:43:59.332Z,12.00
2022-12-27T11:46:35.406Z,16.97
2022-12-27T11:49:10.255Z,13.10
2022-12-27T11:52:09.654Z,13.23
2022-12-27T11:54:56.650Z,15.30
2022-12-27T11:57:41.607Z,12.17
2022-12-27T12:00:27.126Z,13.37
2022-12-27T12:03:13.050Z,16.60
2022-12-27T12:06:04.543Z,19.30
2022-12-27T12:09:10.293Z,16.90
2022-12-27T12:11:55.336Z,16.37
2022-12-27T12:15:05.324Z,14.17
2022-12-27T12:18:07.971Z,11.37
2022-12-27T12:20:51.021Z,10.53
2022-12-27T12:23:28.005Z,14.20
2022-12-27T12:26:13.525Z,14.37
2022-12-27T12:29:14.145Z,10.23
2022-12-27T12:32:20.824Z,14.00
2022-12-27T12:35:17.787Z,11.03
2022-12-27T12:42:03.489Z,11.07
2022-12-27T12:45:02.632Z,9.77
2022-12-27T12:48:00.377Z,12.43
2022-12-27T12:50:42.853Z,12.10
2022-12-27T12:53:26.617Z,6.67
2022-12-27T12:56:08.025Z,5.17
2022-12-27T12:58:46.267Z,11.97
2022-12-27T13:01:39.548Z,12.90
2022-12-27T13:04:44.636Z,12.50
2022-12-27T13:07:39.729Z,16.57
2022-12-27T13:10:46.011Z,9.27
2022-12-27T13:13:23.074Z,6.23
2022-12-27T13:16:12.146Z,8.50
2022-12-27T13:18:47.890Z,6.93
2022-12-27T13:21:27.764Z,11.70
2022-12-27T13:24:08.425Z,7.67
2022-12-27T13:26:46.147Z,8.03
2022-12-27T13:29:41.325Z,6.80
2022-12-27T13:32:18.207Z,6.40
2022-12-27T13:34:58.565Z,9.17
2022-12-27T13:37:38.395Z,8.47
2022-12-27T13:40:39.157Z,9.37
2022-12-27T13:43:33.291Z,3.87
2022-12-27T13:46:17.777Z,5.83
2022-12-27T13:49:01.447Z,6.80
2022-12-27T13:51:45.960Z,6.00
2022-12-27T13:54:56.398Z,8.30
2022-12-27T13:57:54.709Z,8.93
2022-12-27T14:00:24.813Z,6.67
2022-12-27T14:03:43.783Z,8.27
2022-12-27T14:06:53.049Z,10.40
2022-12-27T14:09:43.048Z,6.37
2022-12-27T14:12:36.727Z,7.00
2022-12-27T14:15:08.133Z,6.33
2022-12-27T14:17:44.542Z,5.33
2022-12-27T14:20:33.358Z,9.53
2022-12-27T14:23:25.323Z,7.97
2022-12-27T14:26:27.887Z,7.43
2022-12-27T14:29:28.635Z,8.40
2022-12-27T14:32:46.278Z,10.10
2022-12-27T14:35:57.666Z,7.83
2022-12-27T14:39:03.257Z,10.37
2022-12-27T14:42:01.432Z,12.03
2022-12-27T14:44:53.960Z,8.87
2022-12-27T14:48:01.667Z,8.67
2022-12-27T14:50:58.509Z,9.70
2022-12-27T14:53:59.632Z,6.17
2022-12-27T14:56:34.580Z,13.97
2022-12-27T14:59:18.930Z,9.23
2022-12-27T15:02:06.393Z,6.07
2022-12-27T15:04:59.506Z,7.63
2022-12-27T15:07:43.181Z,9.67
2022-12-27T15:10:21.576Z,6.70
2022-12-27T15:12:59.375Z,10.57
2022-12-27T15:15:44.089Z,14.17
2022-12-27T15:18:42.712Z,11.80
2022-12-27T15:21:21.915Z,10.57
2022-12-27T15:23:54.371Z,6.77
2022-12-27T15:26:31.244Z,9.37
2022-12-27T15:29:19.499Z,8.97
2022-12-27T15:31:57.792Z,10.83
2022-12-27T15:34:55.406Z,8.47
2022-12-27T15:37:52.142Z,10.23
2022-12-27T15:40:29.054Z,9.90
2022-12-27T15:43:05.875Z,11.77
2022-12-27T15:45:53.221Z,6.93
2022-12-27T15:48:53.495Z,10.93
2022-12-27T15:51:31.226Z,8.73
2022-12-27T15:54:25.761Z,13.90
2022-12-27T15:57:18.754Z,12.83
2022-12-27T15:59:51.237Z,11.23
2022-12-27T16:02:32.739Z,13.13
2022-12-27T16:05:14.664Z,10.80
2022-12-27T16:07:46.846Z,8.37
2022-12-27T16:10:35.534Z,12.07
2022-12-27T16:13:35.922Z,7.17
2022-12-27T16:16:33.476Z,12.07
2022-12-27T16:19:51.607Z,17.70
2022-12-27T16:22:27.561Z,10.87
2022-12-27T16:24:55.919Z,11.83
2022-12-27T16:27:33.151Z,10.00
2022-12-27T16:30:01.454Z,11.33
2022-12-27T16:32:30.889Z,13.37
2022-12-27T16:35:17.203Z,12.10
2022-12-27T16:37:53.659Z,9.53
2022-12-27T16:40:39.155Z,10.93
2022-12-27T16:43:43.797Z,10.40
2022-12-27T16:46:24.383Z,13.00
2022-12-27T16:49:24.085Z,10.10
2022-12-27T16:52:05.435Z,11.37
2022-12-27T16:54:47.180Z,12.50
2022-12-27T16:57:41.593Z,10.03
2022-12-27T17:00:41.773Z,16.03
2022-12-27T17:03:31.918Z,17.20
2022-12-27T17:06:31.404Z,26.80
2022-12-27T17:09:23.979Z,25.33
2022-12-27T17:12:07.525Z,24.20
2022-12-27T17:14:38.258Z,21.77
2022-12-27T17:17:17.956Z,18.93
2022-12-27T17:19:51.776Z,25.17
2022-12-27T17:22:22.619Z,14.37
2022-12-27T17:24:56.571Z,11.77
2022-12-27T17:27:51.752Z,11.50
2022-12-27T17:30:21.572Z,12.63
2022-12-27T17:33:15.522Z,13.03
2022-12-27T17:36:16.226Z,12.37
2022-12-27T17:38:58.075Z,13.27
2022-12-27T17:41:55.089Z,14.70
2022-12-27T17:44:40.387Z,14.47
2022-12-27T17:47:31.844Z,13.43
2022-12-27T17:50:01.394Z,18.93
2022-12-27T17:52:47.042Z,19.20
2022-12-27T17:55:37.843Z,15.47
2022-12-27T17:58:09.652Z,12.17
2022-12-27T18:00:45.253Z,18.47
2022-12-27T18:03:15.433Z,15.10
2022-12-27T18:05:46.347Z,17.50
2022-12-27T18:08:29.780Z,17.07
2022-12-27T18:11:00.484Z,18.67
2022-12-27T18:13:32.676Z,16.20
2022-12-27T18:16:02.494Z,16.47
2022-12-27T18:18:40.599Z,15.83
2022-12-27T18:21:20.945Z,13.37
2022-12-27T18:24:54.822Z,16.33
2022-12-27T18:28:34.402Z,13.80
2022-12-27T18:31:08.092Z,12.90
2022-12-27T18:33:41.198Z,11.10
2022-12-27T18:36:12.952Z,10.53
2022-12-27T18:38:43.583Z,16.70
2022-12-27T18:41:14.072Z,15.97
2022-12-27T18:43:46.781Z,12.13
2022-12-27T18:46:18.187Z,15.73
2022-12-27T18:48:46.281Z,13.83
2022-12-27T18:51:14.405Z,17.20
2022-12-27T18:53:43.908Z,15.33
2022-12-27T18:56:27.215Z,13.73
2022-12-27T18:59:05.856Z,11.53
2022-12-27T19:01:41.723Z,14.27
2022-12-27T19:04:26.446Z,15.27
2022-12-27T19:07:09.790Z,15.00
2022-12-27T19:09:40.165Z,15.83
2022-12-27T19:12:30.892Z,14.63
2022-12-27T19:15:00.252Z,14.33
2022-12-27T19:17:30.769Z,15.57
2022-12-27T19:20:02.994Z,16.40
2022-12-27T19:22:37.239Z,15.40
2022-12-27T19:25:22.266Z,18.40
2022-12-27T19:28:03.982Z,14.30
2022-12-27T19:30:37.179Z,14.20
2022-12-27T19:33:10.032Z,17.63
2022-12-27T19:35:40.625Z,13.63
2022-12-27T19:38:12.881Z,16.07
2022-12-27T19:40:41.138Z,13.33
2022-12-27T19:43:09.226Z,11.80
2022-12-27T19:45:38.924Z,11.97
2022-12-27T19:48:08.634Z,15.67
2022-12-27T19:50:42.909Z,13.20
2022-12-27T19:53:16.152Z,18.10
2022-12-27T19:55:44.322Z,15.47
2022-12-27T19:58:21.724Z,11.33
2022-12-27T20:00:51.231Z,13.63
2022-12-27T20:03:19.470Z,13.93
2022-12-27T20:06:12.444Z,14.37
2022-12-27T20:08:39.177Z,18.17
2022-12-27T20:11:12.881Z,17.83
2022-12-27T20:13:40.990Z,19.37
2022-12-27T20:16:12.280Z,13.27
2022-12-27T20:18:40.781Z,17.47
2022-12-27T20:21:13.082Z,12.07
2022-12-27T20:23:41.232Z,17.20
2022-12-27T20:26:09.769Z,10.60
2022-12-27T20:28:38.144Z,14.07
2022-12-27T20:31:13.783Z,13.63
2022-12-27T20:33:43.165Z,12.87
2022-12-27T20:36:11.811Z,11.93
2022-12-27T20:38:40.573Z,12.93
2022-12-27T20:41:10.075Z,13.53
2022-12-27T20:43:38.104Z,14.87
2022-12-27T20:46:07.519Z,14.57
2022-12-27T20:48:39.839Z,15.37
2022-12-27T20:51:09.939Z,14.97
2022-12-27T20:53:38.149Z,15.03
2022-12-27T20:56:08.934Z,14.33
2022-12-27T20:58:37.358Z,12.53
2022-12-27T21:01:09.650Z,11.63
2022-12-27T21:03:39.954Z,13.77
2022-12-27T21:06:13.815Z,18.77
2022-12-27T21:08:47.859Z,14.27
2022-12-27T21:11:19.652Z,13.97
2022-12-27T21:13:48.959Z,14.30
2022-12-27T21:16:20.537Z,17.00
2022-12-27T21:18:50.724Z,12.10
2022-12-27T21:21:20.827Z,13.00
2022-12-27T21:23:49.717Z,9.83
2022-12-27T21:26:21.677Z,16.17
2022-12-27T21:28:49.791Z,13.17
2022-12-27T21:31:19.522Z,15.23
2022-12-27T21:33:49.247Z,17.77
2022-12-27T21:36:18.909Z,14.40
2022-12-27T21:38:47.224Z,12.23
2022-12-27T21:41:16.712Z,9.40
2022-12-27T21:43:46.085Z,12.60
2022-12-27T21:46:17.793Z,16.00
2022-12-27T21:48:46.499Z,10.03
2022-12-27T21:51:17.816Z,13.20
2022-12-27T21:53:49.744Z,9.13
2022-12-27T21:56:18.604Z,11.80
2022-12-27T21:58:47.513Z,14.60
2022-12-27T22:01:18.306Z,15.07
2022-12-27T22:03:47.970Z,15.40
2022-12-27T22:06:19.466Z,11.67
2022-12-27T22:08:49.611Z,11.03
2022-12-27T22:11:18.985Z,17.67
2022-12-27T22:13:47.533Z,14.20
2022-12-27T22:16:18.333Z,13.47
2022-12-27T22:18:46.534Z,17.17
2022-12-27T22:21:16.586Z,16.33
2022-12-27T22:23:47.527Z,13.13
2022-12-27T22:26:16.776Z,12.17
2022-12-27T22:28:45.460Z,15.43
2022-12-27T22:31:18.088Z,13.23
2022-12-27T22:33:48.773Z,12.83
2022-12-27T22:36:18.729Z,13.47
2022-12-27T22:38:50.354Z,15.00
2022-12-27T22:41:20.296Z,16.83
2022-12-27T22:43:52.164Z,13.43
2022-12-27T22:46:21.245Z,10.70
2022-12-27T22:48:51.632Z,13.57
2022-12-27T22:51:21.471Z,16.93
2022-12-27T22:53:51.205Z,14.17
2022-12-27T22:56:21.561Z,13.23
2022-12-27T22:58:50.445Z,15.83
2022-12-27T23:01:20.533Z,17.20
2022-12-27T23:03:49.703Z,23.07
2022-12-27T23:06:18.622Z,16.67
2022-12-27T23:08:47.777Z,13.90
2022-12-27T23:11:19.005Z,12.23
2022-12-27T23:13:48.128Z,12.23
2022-12-27T23:16:16.943Z,15.70
2022-12-27T23:18:46.828Z,15.27
2022-12-27T23:21:20.991Z,12.10
2022-12-27T23:23:52.812Z,11.53
2022-12-27T23:26:24.139Z,15.70
2022-12-27T23:28:53.437Z,12.67
2022-12-27T23:31:23.618Z,15.00
2022-12-27T23:33:51.951Z,13.60
2022-12-27T23:36:20.856Z,14.47
2022-12-27T23:38:49.139Z,11.33
2022-12-27T23:41:18.705Z,18.50
2022-12-27T23:43:53.706Z,15.23
2022-12-27T23:46:24.961Z,14.53
2022-12-27T23:48:53.725Z,18.60
2022-12-27T23:51:22.506Z,18.93
2022-12-27T23:53:51.070Z,14.40
2022-12-27T23:56:21.587Z,17.57
2022-12-27T23:58:53.383Z,17.10
